createdAt,value
2022-12-03T00:02:55.682Z,97.80
2022-12-03T00:06:58.633Z,97.90
2022-12-03T00:11:01.466Z,98.00
2022-12-03T00:15:07.049Z,97.90
2022-12-03T00:19:09.892Z,98.00
2022-12-03T00:23:12.739Z,98.00
2022-12-03T00:27:15.592Z,98.00
2022-12-03T00:31:21.300Z,98.10
2022-12-03T00:35:24.195Z,98.10
2022-12-03T00:39:27.064Z,98.00
2022-12-03T00:43:29.894Z,98.00
2022-12-03T00:47:34.025Z,98.10
2022-12-03T00:51:36.856Z,98.10
2022-12-03T00:55:39.621Z,98.10
2022-12-03T00:59:42.486Z,98.10
2022-12-03T01:03:46.872Z,98.20
2022-12-03T01:07:49.788Z,98.20
2022-12-03T01:11:52.717Z,98.30
2022-12-03T01:15:55.579Z,98.40
2022-12-03T01:20:01.541Z,98.50
2022-12-03T01:24:05.587Z,98.40
2022-12-03T01:28:08.393Z,98.40
2022-12-03T01:32:18.109Z,98.40
2022-12-03T01:36:22.366Z,98.50
2022-12-03T01:40:25.276Z,98.60
2022-12-03T01:44:29.475Z,98.50
2022-12-03T01:48:36.323Z,98.50
2022-12-03T01:52:41.112Z,98.60
2022-12-03T01:56:44.050Z,98.70
2022-12-03T02:00:46.939Z,98.70
2022-12-03T02:04:50.480Z,98.70
2022-12-03T02:08:59.763Z,98.80
2022-12-03T02:13:06.947Z,98.90
2022-12-03T02:17:10.992Z,98.80
2022-12-03T02:21:20.858Z,98.90
2022-12-03T02:25:26.915Z,98.80
2022-12-03T02:29:29.795Z,98.90
2022-12-03T02:33:33.469Z,99.00
2022-12-03T02:37:41.330Z,99.00
2022-12-03T02:42:03.487Z,99.00
2022-12-03T02:46:09.742Z,99.00
2022-12-03T02:50:18.537Z,99.10
2022-12-03T02:54:21.909Z,99.10
2022-12-03T02:58:27.821Z,99.20
2022-12-03T03:02:31.128Z,99.10
2022-12-03T03:06:37.675Z,99.10
2022-12-03T03:10:44.085Z,99.10
2022-12-03T03:14:48.657Z,99.10
2022-12-03T03:18:51.510Z,99.20
2022-12-03T03:22:54.375Z,99.10
2022-12-03T03:26:57.223Z,99.20
2022-12-03T03:31:03.017Z,99.20
2022-12-03T03:35:07.136Z,99.10
2022-12-03T03:39:10.156Z,99.20
2022-12-03T03:43:14.019Z,99.20
2022-12-03T03:47:19.032Z,99.30
2022-12-03T03:51:22.217Z,99.30
2022-12-03T03:55:25.231Z,99.30
2022-12-03T03:59:29.284Z,99.30
2022-12-03T04:03:33.459Z,99.40
2022-12-03T04:07:36.328Z,99.40
2022-12-03T04:11:56.694Z,99.50
2022-12-03T04:15:59.531Z,99.60
2022-12-03T04:20:04.053Z,99.60
2022-12-03T04:24:09.364Z,99.60
2022-12-03T04:28:41.164Z,99.70
2022-12-03T04:33:01.732Z,99.70
2022-12-03T04:37:06.106Z,99.80
2022-12-03T04:41:08.959Z,99.70
2022-12-03T04:45:12.223Z,99.90
2022-12-03T04:49:15.054Z,99.80
2022-12-03T04:53:19.213Z,99.80
2022-12-03T04:57:22.025Z,99.90
2022-12-03T05:01:24.955Z,99.90
2022-12-03T05:05:27.825Z,99.90
2022-12-03T05:09:33.075Z,99.90
2022-12-03T05:13:35.988Z,99.90
2022-12-03T05:17:38.808Z,99.90
2022-12-03T05:21:41.583Z,99.90
2022-12-03T05:25:45.728Z,99.90
2022-12-03T05:29:48.760Z,99.90
2022-12-03T05:33:51.782Z,99.80
2022-12-03T05:37:54.742Z,99.90
2022-12-03T05:42:16.386Z,99.90
2022-12-03T05:46:19.583Z,99.90
2022-12-03T05:50:24.033Z,99.90
2022-12-03T05:54:27.003Z,99.80
2022-12-03T05:58:31.157Z,99.90
2022-12-03T06:02:34.222Z,99.90
2022-12-03T06:06:37.084Z,99.80
2022-12-03T06:10:39.900Z,99.70
2022-12-03T06:14:44.072Z,99.70
2022-12-03T06:18:46.901Z,99.50
2022-12-03T06:22:49.740Z,99.60
2022-12-03T06:26:52.587Z,99.50
2022-12-03T06:30:56.783Z,99.50
2022-12-03T06:35:00.147Z,99.60
2022-12-03T06:39:03.004Z,99.70
2022-12-03T06:43:05.859Z,99.60
2022-12-03T06:47:10.007Z,99.80
2022-12-03T06:51:12.813Z,99.80
2022-12-03T06:55:15.708Z,99.90
2022-12-03T06:59:18.584Z,99.80
2022-12-03T07:03:22.908Z,99.80
2022-12-03T07:07:25.821Z,99.80
2022-12-03T07:11:39.978Z,99.70
2022-12-03T07:15:42.978Z,99.60
2022-12-03T07:19:47.596Z,99.60
2022-12-03T07:23:50.415Z,99.50
2022-12-03T07:27:53.892Z,99.50
2022-12-03T07:31:56.813Z,99.50
2022-12-03T07:36:01.008Z,99.40
2022-12-03T07:40:04.479Z,99.40
2022-12-03T07:44:13.772Z,99.40
2022-12-03T07:48:17.362Z,99.30
2022-12-03T07:52:21.539Z,99.30
2022-12-03T07:56:24.340Z,99.30
2022-12-03T08:00:27.193Z,99.20
2022-12-03T08:04:30.026Z,99.20
2022-12-03T08:08:34.188Z,99.10
2022-12-03T08:12:43.003Z,99.10
2022-12-03T08:16:47.565Z,98.80
2022-12-03T08:20:52.527Z,98.90
2022-12-03T08:24:56.906Z,98.70
2022-12-03T08:28:59.708Z,98.70
2022-12-03T08:33:02.897Z,98.70
2022-12-03T08:37:14.138Z,98.40
2022-12-03T08:41:40.190Z,98.50
2022-12-03T08:45:43.566Z,98.50
2022-12-03T08:49:51.536Z,98.50
2022-12-03T08:54:02.195Z,98.60
2022-12-03T08:58:20.403Z,98.80
2022-12-03T09:02:31.992Z,98.30
2022-12-03T09:06:34.776Z,98.30
2022-12-03T09:10:37.683Z,98.30
2022-12-03T09:14:41.936Z,98.20
2022-12-03T09:18:44.764Z,98.20
2022-12-03T09:22:47.645Z,98.10
2022-12-03T09:26:50.667Z,97.90
2022-12-03T09:30:54.805Z,98.10
2022-12-03T09:34:58.006Z,97.80
2022-12-03T09:39:00.826Z,97.40
2022-12-03T09:43:03.776Z,97.30
2022-12-03T09:47:08.532Z,97.00
2022-12-03T09:51:12.121Z,96.80
2022-12-03T09:55:18.424Z,96.50
2022-12-03T09:59:23.059Z,96.70
2022-12-03T10:03:30.919Z,96.40
2022-12-03T10:07:33.846Z,96.30
2022-12-03T10:11:37.076Z,96.30
2022-12-03T10:15:40.204Z,96.10
2022-12-03T10:19:44.964Z,96.30
2022-12-03T10:23:55.098Z,96.20
2022-12-03T10:28:01.438Z,96.30
2022-12-03T10:32:07.119Z,96.10
2022-12-03T10:36:23.379Z,96.10
2022-12-03T10:40:27.835Z,96.10
2022-12-03T10:44:30.960Z,96.10
2022-12-03T10:48:33.778Z,96.20
2022-12-03T10:52:38.426Z,96.30
2022-12-03T10:56:41.661Z,96.20
2022-12-03T11:00:44.493Z,96.10
2022-12-03T11:04:47.378Z,96.00
2022-12-03T11:08:57.077Z,96.10
2022-12-03T11:13:38.327Z,96.10
2022-12-03T11:17:50.261Z,96.20
2022-12-03T11:22:24.927Z,96.40
2022-12-03T11:27:06.734Z,96.10
2022-12-03T11:31:35.585Z,96.30
2022-12-03T11:36:31.637Z,96.30
2022-12-03T11:41:10.480Z,96.30
2022-12-03T11:45:24.242Z,96.30
2022-12-03T11:49:39.075Z,96.00
2022-12-03T11:53:46.101Z,95.80
2022-12-03T11:57:50.333Z,95.80
2022-12-03T12:01:53.102Z,95.80
2022-12-03T12:06:07.657Z,96.00
2022-12-03T12:10:12.068Z,96.00
2022-12-03T12:14:26.969Z,95.90
2022-12-03T12:18:43.755Z,95.80
2022-12-03T12:22:46.582Z,96.10
2022-12-03T12:26:51.592Z,95.80
2022-12-03T12:30:55.753Z,96.10
2022-12-03T12:35:03.085Z,95.80
2022-12-03T12:39:11.378Z,95.80
2022-12-03T12:43:24.060Z,96.00
2022-12-03T12:47:30.978Z,96.20
2022-12-03T12:51:34.007Z,95.90
2022-12-03T12:55:37.723Z,95.80
2022-12-03T12:59:40.779Z,95.80
2022-12-03T13:03:44.991Z,95.90
2022-12-03T13:07:47.987Z,95.80
2022-12-03T13:11:54.567Z,95.80
2022-12-03T13:16:08.317Z,95.90
2022-12-03T13:20:20.452Z,96.10
2022-12-03T13:24:31.586Z,96.10
2022-12-03T13:28:36.137Z,96.00
2022-12-03T13:32:39.889Z,96.00
2022-12-03T13:36:53.561Z,96.20
2022-12-03T13:41:02.720Z,96.10
2022-12-03T13:45:31.623Z,96.20
2022-12-03T13:49:35.974Z,96.00
2022-12-03T13:53:41.742Z,96.10
2022-12-03T13:57:44.597Z,96.20
2022-12-03T14:01:47.517Z,96.30
2022-12-03T14:05:50.462Z,96.10
2022-12-03T14:09:54.935Z,96.10
2022-12-03T14:13:58.030Z,96.30
2022-12-03T14:18:00.930Z,96.40
2022-12-03T14:22:06.640Z,96.50
2022-12-03T14:26:10.938Z,96.30
2022-12-03T14:30:14.794Z,96.40
2022-12-03T14:34:17.626Z,96.40
2022-12-03T14:38:20.563Z,96.40
2022-12-03T14:42:24.903Z,96.40
2022-12-03T14:46:27.880Z,96.40
2022-12-03T14:50:30.900Z,96.60
2022-12-03T14:54:33.878Z,96.50
2022-12-03T14:58:38.336Z,96.50
2022-12-03T15:02:41.198Z,96.70
2022-12-03T15:06:44.169Z,96.90
2022-12-03T15:10:47.668Z,96.80
2022-12-03T15:14:51.875Z,97.10
2022-12-03T15:18:54.729Z,96.80
2022-12-03T15:22:57.566Z,96.80
2022-12-03T15:27:00.652Z,96.80
2022-12-03T15:31:04.855Z,96.80
2022-12-03T15:35:08.550Z,96.90
2022-12-03T15:39:26.457Z,97.00
2022-12-03T15:43:29.342Z,97.00
2022-12-03T15:47:33.595Z,97.00
2022-12-03T15:51:36.414Z,96.90
2022-12-03T15:55:39.242Z,97.00
2022-12-03T15:59:43.000Z,96.90
2022-12-03T16:03:47.344Z,96.90
2022-12-03T16:07:53.310Z,97.00
2022-12-03T16:11:56.309Z,97.20
2022-12-03T16:15:59.297Z,97.30
2022-12-03T16:20:04.226Z,97.10
2022-12-03T16:24:07.540Z,97.20
2022-12-03T16:28:10.471Z,97.20
2022-12-03T16:32:13.613Z,97.30
2022-12-03T16:36:18.088Z,97.40
2022-12-03T16:40:21.223Z,97.40
2022-12-03T16:44:32.620Z,97.50
2022-12-03T16:48:35.556Z,97.60
2022-12-03T16:52:39.711Z,97.60
2022-12-03T16:56:42.765Z,97.70
2022-12-03T17:00:45.875Z,97.80
2022-12-03T17:04:48.836Z,97.80
2022-12-03T17:08:53.076Z,98.00
2022-12-03T17:13:11.328Z,97.90
2022-12-03T17:17:14.287Z,97.90
2022-12-03T17:21:17.202Z,97.80
2022-12-03T17:25:21.537Z,97.90
2022-12-03T17:29:24.367Z,97.90
2022-12-03T17:33:27.219Z,97.80
2022-12-03T17:37:30.194Z,97.70
2022-12-03T17:41:34.445Z,97.70
2022-12-03T17:45:39.699Z,97.80
2022-12-03T17:49:42.601Z,97.80
2022-12-03T17:53:45.632Z,97.70
2022-12-03T17:57:49.941Z,97.70
2022-12-03T18:01:52.875Z,97.70
2022-12-03T18:05:55.934Z,97.80
2022-12-03T18:10:02.135Z,97.80
2022-12-03T18:14:07.032Z,97.70
2022-12-03T18:18:09.904Z,97.70
2022-12-03T18:22:13.106Z,97.70
2022-12-03T18:26:16.177Z,97.80
2022-12-03T18:30:20.768Z,97.70
2022-12-03T18:34:23.722Z,97.80
2022-12-03T18:38:31.472Z,97.80
2022-12-03T18:42:34.381Z,97.80
2022-12-03T18:46:53.100Z,97.80
2022-12-03T18:50:57.377Z,97.80
2022-12-03T18:55:00.363Z,97.70
2022-12-03T18:59:06.557Z,97.70
2022-12-03T19:03:11.658Z,97.80
2022-12-03T19:07:14.831Z,97.60
2022-12-03T19:11:17.683Z,97.60
2022-12-03T19:15:28.125Z,97.70
2022-12-03T19:19:32.519Z,97.70
2022-12-03T19:23:36.116Z,97.70
2022-12-03T19:27:38.941Z,97.80
2022-12-03T19:31:41.835Z,97.90
2022-12-03T19:35:46.067Z,98.00
2022-12-03T19:39:48.977Z,97.90
2022-12-03T19:43:57.222Z,98.00
2022-12-03T19:48:00.861Z,98.10
2022-12-03T19:52:05.524Z,98.20
2022-12-03T19:56:13.811Z,98.20
2022-12-03T20:00:19.785Z,98.30
2022-12-03T20:04:22.741Z,98.30
2022-12-03T20:08:26.969Z,98.40
2022-12-03T20:12:29.775Z,98.40
2022-12-03T20:16:36.648Z,98.70
2022-12-03T20:20:39.541Z,98.80
2022-12-03T20:24:43.786Z,98.40
2022-12-03T20:28:47.833Z,98.50
2022-12-03T20:32:51.088Z,98.60
2022-12-03T20:36:53.924Z,98.70
2022-12-03T20:41:02.260Z,98.80
2022-12-03T20:45:05.976Z,99.00
2022-12-03T20:49:09.034Z,98.90
2022-12-03T20:53:24.216Z,98.90
2022-12-03T20:57:29.242Z,99.00
2022-12-03T21:01:32.440Z,99.00
2022-12-03T21:05:35.465Z,99.00
2022-12-03T21:09:41.623Z,99.10
2022-12-03T21:13:46.317Z,99.10
2022-12-03T21:17:49.651Z,99.10
2022-12-03T21:21:52.584Z,99.10
2022-12-03T21:25:55.548Z,99.20
2022-12-03T21:29:59.766Z,99.10
2022-12-03T21:34:02.791Z,99.20
2022-12-03T21:38:05.986Z,99.10
2022-12-03T21:42:34.113Z,99.10
2022-12-03T21:47:11.454Z,99.10
2022-12-03T21:51:01.030Z,99.20
2022-12-03T21:55:04.751Z,99.20
2022-12-03T21:59:07.563Z,99.20
2022-12-03T22:03:12.072Z,99.20
2022-12-03T22:07:14.932Z,99.20
2022-12-03T22:11:21.158Z,99.20
2022-12-03T22:15:24.085Z,99.30
2022-12-03T22:19:28.522Z,99.40
2022-12-03T22:23:31.674Z,99.40
2022-12-03T22:27:34.659Z,99.40
2022-12-03T22:31:37.549Z,99.40
2022-12-03T22:35:41.728Z,99.40
2022-12-03T22:39:44.587Z,99.40
2022-12-03T22:43:48.088Z,99.40
2022-12-03T22:47:50.956Z,99.40
2022-12-03T22:51:55.164Z,99.30
2022-12-03T22:56:01.100Z,99.40
2022-12-03T23:00:07.109Z,99.30
2022-12-03T23:04:11.847Z,99.30
2022-12-03T23:08:18.497Z,99.30
2022-12-03T23:12:21.404Z,99.20
2022-12-03T23:16:27.070Z,99.20
2022-12-03T23:20:30.369Z,99.30
2022-12-03T23:24:34.565Z,99.20
2022-12-03T23:28:40.702Z,99.30
2022-12-03T23:32:44.388Z,99.30
2022-12-03T23:36:47.304Z,99.30
2022-12-03T23:40:52.889Z,99.40
2022-12-03T23:44:55.726Z,99.30
2022-12-03T23:49:00.059Z,99.40
2022-12-03T23:53:02.975Z,99.30
2022-12-03T23:57:07.125Z,99.30
